createdAt,value
2023-01-04T00:00:32.930Z,4.04
2023-01-04T00:02:59.691Z,4.34
2023-01-04T00:05:26.399Z,4.39
2023-01-04T00:07:52.962Z,4.62
2023-01-04T00:10:19.685Z,4.09
2023-01-04T00:12:46.257Z,4.34
2023-01-04T00:15:12.874Z,4.29
2023-01-04T00:17:39.450Z,4.59
2023-01-04T00:20:06.154Z,4.60
2023-01-04T00:22:35.604Z,4.28
2023-01-04T00:25:02.321Z,4.15
2023-01-04T00:27:28.891Z,3.90
2023-01-04T00:29:55.947Z,3.61
2023-01-04T00:32:22.580Z,3.30
2023-01-04T00:34:49.211Z,3.42
2023-01-04T00:37:15.818Z,3.63
2023-01-04T00:39:42.409Z,4.22
2023-01-04T00:42:08.989Z,4.03
2023-01-04T00:44:35.755Z,4.31
2023-01-04T00:47:03.016Z,4.39
2023-01-04T00:49:29.922Z,3.96
2023-01-04T00:51:56.503Z,4.15
2023-01-04T00:54:23.352Z,4.30
2023-01-04T00:56:50.022Z,3.87
2023-01-04T00:59:18.090Z,3.82
2023-01-04T01:01:44.906Z,4.14
2023-01-04T01:04:12.823Z,3.75
2023-01-04T01:06:39.656Z,3.92
2023-01-04T01:09:06.284Z,4.18
2023-01-04T01:11:32.896Z,4.15
2023-01-04T01:13:59.495Z,4.25
2023-01-04T01:16:53.162Z,4.35
2023-01-04T01:19:13.842Z,4.52
2023-01-04T01:21:40.581Z,4.50
2023-01-04T01:24:07.326Z,4.57
2023-01-04T01:26:33.904Z,4.66
2023-01-04T01:29:00.585Z,4.62
2023-01-04T01:31:28.217Z,4.56
2023-01-04T01:33:55.541Z,4.81
2023-01-04T01:36:22.850Z,4.68
2023-01-04T01:38:49.657Z,4.80
2023-01-04T01:41:28.420Z,4.76
2023-01-04T01:44:01.896Z,5.03
2023-01-04T01:46:35.376Z,5.17
2023-01-04T01:49:10.327Z,5.20
2023-01-04T01:51:36.942Z,5.26
2023-01-04T01:54:14.512Z,4.76
2023-01-04T01:56:41.464Z,5.05
2023-01-04T01:59:08.311Z,4.90
2023-01-04T02:01:36.423Z,5.17
2023-01-04T02:04:04.122Z,4.62
2023-01-04T02:06:35.976Z,4.86
2023-01-04T02:09:03.320Z,5.09
2023-01-04T02:11:29.905Z,5.28
2023-01-04T02:14:15.158Z,5.32
2023-01-04T02:16:56.838Z,5.01
2023-01-04T02:19:44.941Z,4.73
2023-01-04T02:22:25.386Z,4.73
2023-01-04T02:24:58.124Z,4.54
2023-01-04T02:27:36.168Z,4.92
2023-01-04T02:30:08.425Z,4.89
2023-01-04T02:32:44.988Z,4.93
2023-01-04T02:35:43.604Z,4.99
2023-01-04T02:38:20.396Z,4.96
2023-01-04T02:41:20.549Z,4.71
2023-01-04T02:44:35.866Z,5.22
2023-01-04T02:47:14.520Z,4.93
2023-01-04T02:50:05.058Z,4.92
2023-01-04T02:52:32.290Z,5.34
2023-01-04T02:55:06.770Z,4.83
2023-01-04T02:57:46.560Z,4.41
2023-01-04T03:00:29.127Z,4.96
2023-01-04T03:03:14.492Z,4.97
2023-01-04T03:06:16.058Z,5.06
2023-01-04T03:08:59.116Z,5.32
2023-01-04T03:11:55.044Z,5.20
2023-01-04T03:14:32.343Z,5.47
2023-01-04T03:17:01.512Z,5.13
2023-01-04T03:19:46.621Z,5.48
2023-01-04T03:22:33.583Z,5.65
2023-01-04T03:25:18.908Z,5.66
2023-01-04T03:28:03.856Z,5.55
2023-01-04T03:30:48.772Z,5.56
2023-01-04T03:33:33.608Z,5.10
2023-01-04T03:36:36.777Z,5.16
2023-01-04T03:39:31.901Z,5.43
2023-01-04T03:42:38.738Z,5.37
2023-01-04T03:45:35.205Z,5.23
2023-01-04T03:48:36.241Z,4.86
2023-01-04T03:51:39.462Z,5.04
2023-01-04T03:54:11.911Z,4.90
2023-01-04T03:56:41.762Z,4.84
2023-01-04T03:59:08.910Z,5.19
2023-01-04T04:01:35.685Z,5.04
2023-01-04T04:04:20.919Z,5.14
2023-01-04T04:07:06.128Z,5.28
2023-01-04T04:09:32.767Z,5.29
2023-01-04T04:11:59.377Z,5.31
2023-01-04T04:14:26.168Z,5.32
2023-01-04T04:16:52.836Z,5.46
2023-01-04T04:19:19.529Z,5.27
2023-01-04T04:21:46.104Z,5.23
2023-01-04T04:24:20.299Z,5.24
2023-01-04T04:26:46.898Z,5.03
2023-01-04T04:29:13.489Z,5.40
2023-01-04T04:31:40.371Z,5.24
2023-01-04T04:34:07.056Z,5.39
2023-01-04T04:36:33.701Z,5.62
2023-01-04T04:39:00.632Z,5.41
2023-01-04T04:41:39.522Z,5.10
2023-01-04T04:44:24.800Z,5.07
2023-01-04T04:46:51.369Z,5.13
2023-01-04T04:49:18.186Z,4.99
2023-01-04T04:51:44.998Z,5.36
2023-01-04T04:54:12.931Z,5.49
2023-01-04T04:56:39.540Z,5.46
2023-01-04T04:59:06.444Z,5.35
2023-01-04T05:01:33.219Z,5.47
2023-01-04T05:04:00.003Z,5.43
2023-01-04T05:06:26.619Z,5.41
2023-01-04T05:08:53.221Z,5.47
2023-01-04T05:11:39.740Z,5.39
2023-01-04T05:14:06.364Z,5.43
2023-01-04T05:16:33.036Z,5.39
2023-01-04T05:18:59.691Z,5.31
2023-01-04T05:21:26.292Z,5.24
2023-01-04T05:23:52.908Z,5.24
2023-01-04T05:26:19.512Z,5.41
2023-01-04T05:28:53.286Z,5.42
2023-01-04T05:31:20.476Z,5.47
2023-01-04T05:33:47.128Z,5.56
2023-01-04T05:36:13.707Z,5.53
2023-01-04T05:38:40.337Z,5.60
2023-01-04T05:41:29.736Z,5.66
2023-01-04T05:43:56.431Z,5.77
2023-01-04T05:46:23.098Z,5.50
2023-01-04T05:48:49.740Z,5.57
2023-01-04T05:51:16.332Z,5.56
2023-01-04T05:53:42.993Z,5.59
2023-01-04T05:56:09.614Z,5.68
2023-01-04T05:58:36.329Z,5.58
2023-01-04T06:01:02.929Z,5.66
2023-01-04T06:03:29.638Z,5.77
2023-01-04T06:05:56.305Z,5.67
2023-01-04T06:08:22.917Z,5.73
2023-01-04T06:10:54.093Z,5.97
2023-01-04T06:13:20.698Z,5.92
2023-01-04T06:15:47.320Z,5.85
2023-01-04T06:18:14.205Z,6.12
2023-01-04T06:20:42.041Z,6.29
2023-01-04T06:23:09.146Z,6.30
2023-01-04T06:25:35.760Z,6.16
2023-01-04T06:28:02.358Z,6.08
2023-01-04T06:30:29.283Z,6.31
2023-01-04T06:32:55.874Z,6.38
2023-01-04T06:35:22.480Z,6.50
2023-01-04T06:37:49.072Z,6.58
2023-01-04T06:40:15.792Z,6.53
2023-01-04T06:42:45.034Z,6.63
2023-01-04T06:45:12.604Z,6.64
2023-01-04T06:47:41.419Z,6.52
2023-01-04T06:50:08.406Z,6.52
2023-01-04T06:52:35.008Z,6.59
2023-01-04T06:55:01.664Z,6.57
2023-01-04T06:57:28.247Z,6.57
2023-01-04T06:59:54.864Z,6.61
2023-01-04T07:02:21.566Z,6.74
2023-01-04T07:04:48.410Z,6.75
2023-01-04T07:07:15.033Z,6.73
2023-01-04T07:09:41.668Z,6.72
2023-01-04T07:12:08.401Z,6.61
2023-01-04T07:14:35.233Z,6.68
2023-01-04T07:17:01.860Z,6.78
2023-01-04T07:19:28.464Z,6.66
2023-01-04T07:21:55.887Z,6.68
2023-01-04T07:24:29.541Z,6.78
2023-01-04T07:26:56.919Z,6.65
2023-01-04T07:29:23.695Z,6.74
2023-01-04T07:31:51.128Z,6.69
2023-01-04T07:34:18.438Z,6.72
2023-01-04T07:36:45.075Z,6.66
2023-01-04T07:39:12.702Z,6.63
2023-01-04T07:41:39.747Z,6.71
2023-01-04T07:44:06.559Z,6.76
2023-01-04T07:46:33.476Z,6.83
2023-01-04T07:49:00.244Z,6.79
2023-01-04T07:51:27.019Z,6.75
2023-01-04T07:53:53.705Z,6.69
2023-01-04T07:56:21.580Z,6.65
2023-01-04T07:58:48.265Z,6.63
2023-01-04T08:01:16.534Z,6.62
2023-01-04T08:03:44.603Z,6.57
2023-01-04T08:06:12.114Z,6.55
2023-01-04T08:08:38.904Z,6.51
2023-01-04T08:11:15.918Z,6.49
2023-01-04T08:13:42.694Z,6.42
2023-01-04T08:16:09.629Z,6.35
2023-01-04T08:18:36.317Z,6.32
2023-01-04T08:21:06.337Z,6.29
2023-01-04T08:23:33.184Z,6.27
2023-01-04T08:26:10.957Z,6.27
2023-01-04T08:28:37.777Z,6.27
2023-01-04T08:31:14.925Z,6.25
2023-01-04T08:33:41.937Z,6.26
2023-01-04T08:36:26.529Z,6.20
2023-01-04T08:39:02.303Z,6.23
2023-01-04T08:41:57.154Z,6.22
2023-01-04T08:44:23.666Z,6.19
2023-01-04T08:46:50.921Z,6.26
2023-01-04T08:49:18.126Z,6.30
2023-01-04T08:51:45.203Z,6.33
2023-01-04T08:54:11.900Z,6.30
2023-01-04T08:56:38.756Z,6.41
2023-01-04T08:59:05.769Z,6.40
2023-01-04T09:01:33.363Z,6.47
2023-01-04T09:04:00.187Z,6.48
2023-01-04T09:06:26.875Z,6.50
2023-01-04T09:08:53.505Z,6.54
2023-01-04T09:11:21.185Z,6.65
2023-01-04T09:13:47.884Z,6.68
2023-01-04T09:16:18.794Z,6.71
2023-01-04T09:18:45.469Z,6.76
2023-01-04T09:21:16.869Z,6.68
2023-01-04T09:23:43.699Z,6.68
2023-01-04T09:26:15.098Z,6.78
2023-01-04T09:28:42.039Z,6.84
2023-01-04T09:31:09.592Z,6.69
2023-01-04T09:34:11.941Z,6.78
2023-01-04T09:36:24.351Z,6.78
2023-01-04T09:38:52.334Z,6.81
2023-01-04T09:41:27.094Z,6.79
2023-01-04T09:44:03.758Z,6.83
2023-01-04T09:46:49.760Z,6.79
2023-01-04T09:49:23.798Z,6.78
2023-01-04T09:52:03.748Z,6.80
2023-01-04T09:55:00.620Z,6.69
2023-01-04T09:57:33.654Z,6.67
2023-01-04T10:00:17.599Z,6.69
2023-01-04T10:02:54.092Z,6.70
2023-01-04T10:05:27.155Z,6.78
2023-01-04T10:07:53.780Z,6.77
2023-01-04T10:11:02.029Z,6.77
2023-01-04T10:13:46.830Z,6.78
2023-01-04T10:16:44.233Z,6.75
2023-01-04T10:22:23.970Z,6.70
2023-01-04T10:25:17.861Z,6.72
2023-01-04T10:27:58.954Z,6.68
2023-01-04T10:30:29.922Z,6.72
2023-01-04T10:33:15.943Z,6.75
2023-01-04T10:35:43.727Z,6.80
2023-01-04T10:38:23.899Z,6.81
2023-01-04T10:40:50.634Z,6.79
2023-01-04T10:43:32.231Z,6.81
2023-01-04T10:46:22.133Z,6.88
2023-01-04T10:48:53.474Z,6.85
2023-01-04T10:51:51.894Z,6.86
2023-01-04T10:54:35.504Z,6.79
2023-01-04T10:57:08.915Z,6.74
2023-01-04T10:59:43.235Z,6.79
2023-01-04T11:02:18.609Z,6.86
2023-01-04T11:04:47.752Z,6.88
2023-01-04T11:07:41.930Z,6.88
2023-01-04T11:10:31.751Z,6.85
2023-01-04T11:12:58.445Z,6.89
2023-01-04T11:15:25.044Z,6.79
2023-01-04T11:17:51.650Z,6.86
2023-01-04T11:20:18.362Z,6.94
2023-01-04T11:23:06.481Z,7.00
2023-01-04T11:25:39.829Z,6.97
2023-01-04T11:28:15.931Z,6.99
2023-01-04T11:31:11.869Z,6.97
2023-01-04T11:34:03.491Z,6.93
2023-01-04T11:36:35.713Z,6.98
2023-01-04T11:39:02.877Z,6.96
2023-01-04T11:41:29.480Z,7.01
2023-01-04T11:44:06.789Z,6.96
2023-01-04T11:46:34.501Z,6.98
2023-01-04T11:49:01.165Z,6.94
2023-01-04T11:51:28.685Z,6.92
2023-01-04T11:54:13.282Z,6.95
2023-01-04T11:56:40.280Z,6.93
2023-01-04T11:59:22.655Z,6.94
2023-01-04T12:01:51.942Z,6.95
2023-01-04T12:04:21.535Z,6.91
2023-01-04T12:06:52.257Z,6.89
2023-01-04T12:09:19.488Z,6.94
2023-01-04T12:11:50.352Z,6.90
2023-01-04T12:14:21.565Z,6.89
2023-01-04T12:17:01.054Z,6.80
2023-01-04T12:19:28.221Z,6.93
2023-01-04T12:21:56.848Z,6.83
2023-01-04T12:24:25.427Z,6.82
2023-01-04T12:26:52.534Z,6.92
2023-01-04T12:29:25.197Z,7.00
2023-01-04T12:32:00.863Z,6.94
2023-01-04T12:34:28.571Z,7.06
2023-01-04T12:37:04.855Z,7.02
2023-01-04T12:39:41.564Z,6.97
2023-01-04T12:42:19.848Z,6.95
2023-01-04T12:44:52.169Z,6.93
2023-01-04T12:47:37.565Z,6.97
2023-01-04T12:50:08.915Z,6.95
2023-01-04T12:53:10.150Z,6.94
2023-01-04T12:55:31.640Z,6.95
2023-01-04T12:58:49.782Z,6.95
2023-01-04T13:01:27.998Z,6.97
2023-01-04T13:04:19.041Z,7.01
2023-01-04T13:06:45.681Z,7.00
2023-01-04T13:09:24.061Z,6.99
2023-01-04T13:12:03.919Z,6.96
2023-01-04T13:14:36.421Z,7.05
2023-01-04T13:17:13.039Z,7.07
2023-01-04T13:19:39.737Z,7.07
2023-01-04T13:22:29.405Z,7.02
2023-01-04T13:24:57.809Z,6.98
2023-01-04T13:27:24.515Z,6.94
2023-01-04T13:29:51.417Z,7.00
2023-01-04T13:32:28.187Z,6.99
2023-01-04T13:34:56.350Z,6.92
2023-01-04T13:37:26.844Z,6.95
2023-01-04T13:40:15.351Z,7.01
2023-01-04T13:43:02.872Z,6.93
2023-01-04T13:46:23.515Z,6.94
2023-01-04T13:48:52.107Z,6.92
2023-01-04T13:51:30.576Z,6.97
2023-01-04T13:54:04.232Z,7.01
2023-01-04T13:56:32.903Z,7.10
2023-01-04T13:58:59.529Z,7.04
2023-01-04T14:01:45.564Z,7.05
2023-01-04T14:04:44.223Z,7.06
2023-01-04T14:07:10.801Z,7.08
2023-01-04T14:09:44.983Z,7.07
2023-01-04T14:12:16.130Z,7.10
2023-01-04T14:14:58.063Z,7.12
2023-01-04T14:17:49.719Z,7.16
2023-01-04T14:20:16.222Z,7.18
2023-01-04T14:22:45.486Z,7.21
2023-01-04T14:25:31.055Z,7.20
2023-01-04T14:28:22.694Z,7.26
2023-01-04T14:30:52.204Z,7.35
2023-01-04T14:33:20.061Z,7.34
2023-01-04T14:35:49.029Z,7.30
2023-01-04T14:38:18.467Z,7.28
2023-01-04T14:40:45.067Z,7.27
2023-01-04T14:43:37.497Z,7.17
2023-01-04T14:46:04.100Z,7.19
2023-01-04T14:48:30.714Z,7.19
2023-01-04T14:50:58.448Z,7.20
2023-01-04T14:53:25.235Z,7.29
2023-01-04T14:55:51.943Z,7.34
2023-01-04T14:58:18.531Z,7.32
2023-01-04T15:00:47.848Z,7.33
2023-01-04T15:03:14.645Z,7.35
2023-01-04T15:05:42.715Z,7.32
2023-01-04T15:08:12.472Z,7.36
2023-01-04T15:10:39.184Z,7.26
2023-01-04T15:13:05.804Z,7.17
2023-01-04T15:15:35.414Z,7.17
2023-01-04T15:18:03.270Z,7.19
2023-01-04T15:20:29.952Z,7.09
2023-01-04T15:22:56.608Z,7.02
2023-01-04T15:25:23.277Z,7.08
2023-01-04T15:27:50.476Z,7.10
2023-01-04T15:30:17.210Z,7.08
2023-01-04T15:32:44.426Z,6.99
2023-01-04T15:35:11.335Z,7.06
2023-01-04T15:37:38.000Z,7.17
2023-01-04T15:40:05.177Z,7.12
2023-01-04T15:42:50.404Z,7.19
2023-01-04T15:45:17.169Z,7.12
2023-01-04T15:47:43.792Z,7.16
2023-01-04T15:50:10.487Z,7.27
2023-01-04T15:52:37.073Z,7.31
2023-01-04T15:55:03.860Z,7.29
2023-01-04T15:57:30.539Z,7.39
2023-01-04T15:59:57.472Z,7.40
2023-01-04T16:02:24.213Z,7.40
2023-01-04T16:04:51.194Z,7.47
2023-01-04T16:07:17.882Z,7.57
2023-01-04T16:09:44.614Z,7.62
2023-01-04T16:12:29.646Z,7.68
2023-01-04T16:14:56.364Z,7.62
2023-01-04T16:17:22.969Z,7.57
2023-01-04T16:19:49.639Z,7.62
2023-01-04T16:22:16.237Z,7.70
2023-01-04T16:25:09.926Z,7.67
2023-01-04T16:27:35.529Z,7.67
2023-01-04T16:30:03.668Z,7.77
2023-01-04T16:32:30.400Z,7.78
2023-01-04T16:34:57.052Z,7.78
2023-01-04T16:37:26.535Z,7.70
2023-01-04T16:40:09.424Z,7.79
2023-01-04T16:42:37.843Z,7.76
2023-01-04T16:45:04.997Z,7.65
2023-01-04T16:47:39.470Z,7.84
2023-01-04T16:50:07.188Z,7.84
2023-01-04T16:52:33.847Z,7.91
2023-01-04T16:55:00.518Z,7.97
2023-01-04T16:57:27.099Z,7.94
2023-01-04T16:59:53.788Z,7.92
2023-01-04T17:02:20.579Z,8.02
2023-01-04T17:04:52.859Z,8.09
2023-01-04T17:07:19.474Z,8.07
2023-01-04T17:09:46.107Z,8.11
2023-01-04T17:12:46.280Z,8.25
2023-01-04T17:17:45.831Z,8.30
2023-01-04T17:20:12.439Z,8.36
2023-01-04T17:22:40.523Z,8.52
2023-01-04T17:25:07.918Z,8.47
2023-01-04T17:27:34.800Z,8.41
2023-01-04T17:30:01.458Z,8.48
2023-01-04T17:32:28.095Z,8.41
2023-01-04T17:34:54.758Z,8.50
2023-01-04T17:37:21.403Z,8.50
2023-01-04T17:39:48.273Z,8.49
2023-01-04T17:42:14.853Z,8.55
2023-01-04T17:44:41.499Z,8.50
2023-01-04T17:47:08.270Z,8.54
2023-01-04T17:49:34.923Z,8.72
2023-01-04T17:52:01.561Z,8.62
2023-01-04T17:54:28.190Z,8.67
2023-01-04T17:56:54.895Z,8.62
2023-01-04T17:59:21.533Z,8.72
2023-01-04T18:01:48.281Z,8.77
2023-01-04T18:04:14.986Z,8.80
2023-01-04T18:06:41.642Z,8.82
2023-01-04T18:09:09.062Z,8.73
2023-01-04T18:11:35.839Z,8.77
2023-01-04T18:14:05.918Z,8.76
2023-01-04T18:16:56.128Z,8.88
2023-01-04T18:19:24.267Z,8.88
2023-01-04T18:21:50.878Z,8.95
2023-01-04T18:27:22.697Z,8.74
2023-01-04T18:29:51.773Z,8.90
2023-01-04T18:32:18.609Z,8.94
2023-01-04T18:34:45.327Z,8.96
2023-01-04T18:37:11.963Z,8.97
2023-01-04T18:39:38.597Z,8.94
2023-01-04T18:42:05.283Z,8.97
2023-01-04T18:44:33.859Z,8.91
2023-01-04T18:47:01.304Z,9.00
2023-01-04T18:49:30.655Z,9.05
2023-01-04T18:51:57.319Z,9.07
2023-01-04T18:54:24.510Z,8.96
2023-01-04T18:56:55.727Z,8.92
2023-01-04T18:59:30.416Z,8.97
2023-01-04T19:02:01.652Z,8.97
2023-01-04T19:04:29.405Z,8.99
2023-01-04T19:06:56.133Z,8.95
2023-01-04T19:09:22.809Z,9.02
2023-01-04T19:11:49.548Z,8.94
2023-01-04T19:14:16.161Z,8.89
2023-01-04T19:16:42.914Z,8.93
2023-01-04T19:19:09.969Z,8.90
2023-01-04T19:21:37.739Z,8.85
2023-01-04T19:24:04.591Z,8.93
2023-01-04T19:26:31.202Z,8.89
2023-01-04T19:28:58.023Z,8.87
2023-01-04T19:31:24.656Z,8.89
2023-01-04T19:33:51.273Z,8.83
2023-01-04T19:36:18.348Z,8.87
2023-01-04T19:38:44.979Z,8.96
2023-01-04T19:41:29.077Z,9.01
2023-01-04T19:43:57.873Z,8.92
2023-01-04T19:46:24.615Z,8.87
2023-01-04T19:48:51.238Z,8.94
2023-01-04T19:51:18.094Z,8.98
2023-01-04T19:53:45.021Z,8.97
2023-01-04T19:56:12.312Z,9.04
2023-01-04T19:58:39.439Z,9.07
2023-01-04T20:01:06.371Z,9.16
2023-01-04T20:03:33.447Z,9.08
2023-01-04T20:06:03.712Z,9.16
2023-01-04T20:08:30.553Z,9.19
2023-01-04T20:10:57.467Z,8.99
2023-01-04T20:13:24.066Z,9.18
2023-01-04T20:15:53.576Z,9.22
2023-01-04T20:22:32.283Z,9.24
2023-01-04T20:24:59.092Z,9.22
2023-01-04T20:27:25.768Z,9.19
2023-01-04T20:29:52.413Z,9.19
2023-01-04T20:32:19.173Z,9.16
2023-01-04T20:34:45.929Z,9.23
2023-01-04T20:37:13.022Z,9.27
2023-01-04T20:39:39.709Z,9.17
2023-01-04T20:42:24.481Z,9.20
2023-01-04T20:44:51.148Z,9.29
2023-01-04T20:47:20.021Z,9.16
2023-01-04T20:49:47.655Z,9.21
2023-01-04T20:52:14.917Z,9.30
2023-01-04T20:54:41.706Z,9.21
2023-01-04T20:57:08.434Z,9.24
2023-01-04T20:59:35.070Z,9.36
2023-01-04T21:02:03.361Z,9.44
2023-01-04T21:04:31.917Z,9.39
2023-01-04T21:06:58.600Z,9.35
2023-01-04T21:09:25.286Z,9.41
2023-01-04T21:11:51.903Z,9.47
2023-01-04T21:14:18.661Z,9.51
2023-01-04T21:16:45.433Z,9.48
2023-01-04T21:19:12.209Z,9.46
2023-01-04T21:21:38.909Z,9.44
2023-01-04T21:24:05.677Z,9.53
2023-01-04T21:26:32.259Z,9.46
2023-01-04T21:28:58.896Z,9.49
2023-01-04T21:31:25.689Z,9.51
2023-01-04T21:33:52.677Z,9.51
2023-01-04T21:36:20.780Z,9.44
2023-01-04T21:38:55.159Z,9.54
2023-01-04T21:41:25.274Z,9.39
2023-01-04T21:43:53.001Z,9.47
2023-01-04T21:46:19.779Z,9.59
2023-01-04T21:48:46.498Z,9.54
2023-01-04T21:51:13.404Z,9.50
2023-01-04T21:53:40.154Z,9.54
2023-01-04T21:56:08.729Z,9.58
2023-01-04T21:58:35.475Z,9.59
2023-01-04T22:01:02.193Z,9.63
2023-01-04T22:03:28.896Z,9.62
2023-01-04T22:06:00.907Z,9.59
2023-01-04T22:08:27.542Z,9.61
2023-01-04T22:10:54.606Z,9.52
2023-01-04T22:13:21.509Z,9.61
2023-01-04T22:15:48.330Z,9.57
2023-01-04T22:18:15.974Z,9.58
2023-01-04T22:20:42.652Z,9.65
2023-01-04T22:23:09.320Z,9.76
2023-01-04T22:25:36.136Z,9.74
2023-01-04T22:28:02.846Z,9.67
2023-01-04T22:30:29.500Z,9.62
2023-01-04T22:32:56.084Z,9.65
2023-01-04T22:35:22.877Z,9.54
2023-01-04T22:37:49.489Z,9.69
2023-01-04T22:40:16.144Z,9.65
2023-01-04T22:42:42.830Z,9.71
2023-01-04T22:45:13.317Z,9.71
2023-01-04T22:47:40.309Z,9.64
2023-01-04T22:50:07.240Z,9.65
2023-01-04T22:52:33.833Z,9.63
2023-01-04T22:55:00.434Z,9.62
2023-01-04T22:57:27.035Z,9.67
2023-01-04T22:59:53.853Z,9.67
2023-01-04T23:02:20.456Z,9.56
2023-01-04T23:04:47.128Z,9.65
2023-01-04T23:07:13.795Z,9.64
2023-01-04T23:09:40.415Z,9.57
2023-01-04T23:12:07.238Z,9.65
2023-01-04T23:14:33.868Z,9.71
2023-01-04T23:17:00.682Z,9.69
2023-01-04T23:19:27.514Z,9.65
2023-01-04T23:21:54.097Z,9.73
2023-01-04T23:24:20.692Z,9.64
2023-01-04T23:26:47.305Z,9.72
2023-01-04T23:29:13.947Z,9.58
2023-01-04T23:31:40.662Z,9.66
2023-01-04T23:34:07.592Z,9.66
2023-01-04T23:36:40.107Z,9.59
2023-01-04T23:39:09.237Z,9.55
2023-01-04T23:41:45.401Z,9.61
2023-01-04T23:44:13.003Z,9.62
2023-01-04T23:46:39.635Z,9.73
2023-01-04T23:49:06.286Z,9.69
2023-01-04T23:51:32.939Z,9.71
2023-01-04T23:53:59.653Z,9.60
2023-01-04T23:56:26.305Z,9.73
2023-01-04T23:58:52.943Z,9.84
